createdAt,value
2018-06-12T00:01:39.837Z,8.96
2018-06-12T00:04:08.091Z,9.23
2018-06-12T00:06:36.352Z,9.73
2018-06-12T00:09:06.711Z,10.08
2018-06-12T00:11:36.427Z,10.30
2018-06-12T00:14:05.120Z,10.03
2018-06-12T00:16:33.877Z,11.03
2018-06-12T00:19:02.202Z,11.60
2018-06-12T00:21:31.032Z,8.68
2018-06-12T00:24:00.238Z,10.13
2018-06-12T00:26:29.683Z,12.98
2018-06-12T00:28:57.933Z,11.13
2018-06-12T00:31:26.495Z,11.00
2018-06-12T00:33:55.931Z,9.30
2018-06-12T00:36:24.719Z,8.93
2018-06-12T00:38:53.242Z,8.95
2018-06-12T00:41:22.918Z,8.38
2018-06-12T00:43:52.063Z,9.66
2018-06-12T00:46:20.612Z,9.32
2018-06-12T00:48:49.175Z,14.85
2018-06-12T00:51:17.683Z,9.57
2018-06-12T00:53:46.680Z,7.97
2018-06-12T00:56:26.166Z,9.83
2018-06-12T00:58:54.530Z,9.70
2018-06-12T01:01:23.089Z,11.13
2018-06-12T01:03:52.383Z,11.77
2018-06-12T01:06:20.937Z,8.30
2018-06-12T01:08:49.189Z,11.33
2018-06-12T01:11:17.436Z,8.75
2018-06-12T01:13:45.950Z,9.33
2018-06-12T01:16:15.055Z,10.47
2018-06-12T01:18:43.598Z,11.73
2018-06-12T01:21:12.582Z,10.07
2018-06-12T01:23:41.095Z,8.50
2018-06-12T01:26:10.274Z,8.23
2018-06-12T01:28:39.428Z,8.78
2018-06-12T01:31:08.390Z,10.15
2018-06-12T01:33:36.919Z,10.80
2018-06-12T01:36:05.467Z,8.90
2018-06-12T01:38:34.552Z,7.62
2018-06-12T01:41:03.095Z,8.23
2018-06-12T01:43:32.758Z,7.90
2018-06-12T01:46:01.020Z,8.30
2018-06-12T01:48:29.558Z,8.95
2018-06-12T01:50:58.714Z,8.08
2018-06-12T01:53:28.054Z,8.86
2018-06-12T01:55:56.434Z,8.60
2018-06-12T01:58:24.937Z,7.22
2018-06-12T02:00:54.528Z,8.12
2018-06-12T02:03:23.857Z,9.22
2018-06-12T02:05:52.218Z,7.20
2018-06-12T02:08:20.462Z,7.85
2018-06-12T02:10:49.018Z,7.73
2018-06-12T02:13:17.555Z,6.70
2018-06-12T02:15:46.662Z,9.27
2018-06-12T02:18:15.214Z,11.43
2018-06-12T02:20:43.481Z,6.30
2018-06-12T02:23:12.711Z,8.60
2018-06-12T02:25:41.465Z,7.67
2018-06-12T02:28:10.005Z,6.33
2018-06-12T02:30:38.459Z,5.20
2018-06-12T02:33:06.710Z,7.80
2018-06-12T02:35:35.273Z,5.13
2018-06-12T02:38:04.680Z,5.28
2018-06-12T02:40:33.269Z,5.67
2018-06-12T02:43:02.287Z,7.20
2018-06-12T02:45:30.663Z,5.77
2018-06-12T02:47:59.429Z,7.20
2018-06-12T02:50:27.678Z,5.75
2018-06-12T02:52:56.004Z,8.10
2018-06-12T02:55:25.093Z,7.67
2018-06-12T02:57:53.571Z,6.28
2018-06-12T03:00:22.300Z,7.83
2018-06-12T03:02:50.829Z,8.50
2018-06-12T03:05:19.385Z,6.40
2018-06-12T03:07:47.935Z,5.70
2018-06-12T03:10:17.075Z,8.30
2018-06-12T03:12:45.627Z,9.95
2018-06-12T03:15:15.174Z,6.72
2018-06-12T03:17:43.678Z,8.00
2018-06-12T03:20:12.231Z,6.57
2018-06-12T03:22:40.497Z,5.53
2018-06-12T03:25:09.770Z,8.00
2018-06-12T03:27:38.308Z,5.50
2018-06-12T03:30:06.791Z,5.53
2018-06-12T03:32:35.399Z,7.37
2018-06-12T03:35:03.957Z,7.00
2018-06-12T03:37:32.711Z,7.17
2018-06-12T03:40:02.000Z,6.60
2018-06-12T03:42:31.491Z,5.78
2018-06-12T03:45:03.161Z,6.72
2018-06-12T03:47:32.198Z,6.30
2018-06-12T03:50:00.702Z,5.13
2018-06-12T03:52:29.266Z,5.15
2018-06-12T03:55:07.017Z,7.67
2018-06-12T03:57:35.552Z,4.03
2018-06-12T04:00:04.919Z,6.53
2018-06-12T04:02:33.655Z,5.77
2018-06-12T04:05:02.838Z,6.72
2018-06-12T04:10:05.161Z,6.30
2018-06-12T04:12:33.730Z,5.43
2018-06-12T04:17:36.503Z,5.28
2018-06-12T04:20:08.627Z,5.67
2018-06-12T04:22:38.436Z,5.07
2018-06-12T04:25:07.099Z,7.17
2018-06-12T04:27:35.612Z,6.57
2018-06-12T04:30:04.275Z,5.83
2018-06-12T04:32:35.896Z,5.40
2018-06-12T04:35:04.220Z,5.93
2018-06-12T04:37:33.439Z,7.08
2018-06-12T04:40:01.844Z,8.73
2018-06-12T04:42:31.115Z,7.47
2018-06-12T04:45:00.056Z,5.90
2018-06-12T04:47:28.838Z,7.27
2018-06-12T04:49:57.427Z,7.40
2018-06-12T04:52:26.594Z,8.20
2018-06-12T04:54:58.399Z,7.13
2018-06-12T04:57:26.991Z,7.20
2018-06-12T04:59:55.587Z,8.78
2018-06-12T05:02:24.134Z,9.20
2018-06-12T05:04:52.740Z,8.30
2018-06-12T05:07:21.598Z,8.87
2018-06-12T05:09:50.144Z,7.97
2018-06-12T05:12:19.623Z,7.90
2018-06-12T05:14:48.670Z,6.87
2018-06-12T05:17:16.986Z,8.00
2018-06-12T05:19:46.214Z,8.35
2018-06-12T05:22:16.089Z,8.58
2018-06-12T05:24:44.654Z,6.13
2018-06-12T05:27:13.673Z,9.50
2018-06-12T05:29:42.156Z,7.83
2018-06-12T05:32:11.914Z,6.30
2018-06-12T05:34:41.380Z,9.90
2018-06-12T05:37:09.899Z,5.17
2018-06-12T05:39:38.194Z,6.97
2018-06-12T05:42:07.299Z,9.78
2018-06-12T05:47:31.210Z,8.03
2018-06-12T05:50:00.699Z,7.95
2018-06-12T05:52:29.168Z,8.15
2018-06-12T05:54:57.452Z,6.77
2018-06-12T05:57:26.184Z,6.87
2018-06-12T05:59:55.082Z,6.03
2018-06-12T06:02:23.604Z,8.10
2018-06-12T06:04:51.998Z,8.37
2018-06-12T06:07:20.561Z,5.58
2018-06-12T06:09:49.703Z,6.15
2018-06-12T06:12:19.151Z,7.10
2018-06-12T06:14:47.602Z,10.90
2018-06-12T06:17:16.132Z,8.45
2018-06-12T06:19:44.506Z,8.37
2018-06-12T06:22:13.264Z,8.85
2018-06-12T06:24:41.978Z,8.33
2018-06-12T06:27:11.202Z,8.43
2018-06-12T06:29:39.799Z,6.33
2018-06-12T06:32:08.543Z,7.30
2018-06-12T06:34:36.837Z,5.80
2018-06-12T06:37:05.177Z,9.53
2018-06-12T06:39:33.851Z,8.27
2018-06-12T06:42:02.172Z,8.23
2018-06-12T06:44:31.284Z,8.10
2018-06-12T06:46:59.688Z,8.28
2018-06-12T06:49:28.511Z,10.50
2018-06-12T06:51:56.913Z,6.87
2018-06-12T06:54:25.527Z,7.33
2018-06-12T06:56:54.116Z,7.67
2018-06-12T06:59:23.645Z,10.25
2018-06-12T07:01:52.836Z,8.80
2018-06-12T07:04:22.030Z,6.12
2018-06-12T07:06:50.327Z,5.97
2018-06-12T07:09:18.644Z,6.67
2018-06-12T07:11:47.125Z,6.78
2018-06-12T07:14:16.571Z,7.85
2018-06-12T07:16:45.580Z,6.58
2018-06-12T07:19:14.116Z,6.90
2018-06-12T07:21:42.408Z,7.03
2018-06-12T07:24:11.005Z,6.73
2018-06-12T07:26:39.637Z,4.45
2018-06-12T07:29:08.171Z,6.57
2018-06-12T07:31:36.689Z,8.70
2018-06-12T07:34:06.240Z,8.03
2018-06-12T07:36:35.279Z,5.92
2018-06-12T07:39:05.911Z,6.45
2018-06-12T07:41:34.467Z,9.00
2018-06-12T07:44:04.471Z,8.10
2018-06-12T07:46:33.013Z,5.65
2018-06-12T07:49:01.579Z,7.75
2018-06-12T07:51:30.123Z,5.73
2018-06-12T07:53:58.425Z,5.03
2018-06-12T07:56:26.834Z,6.50
2018-06-12T07:58:55.814Z,9.20
2018-06-12T08:01:24.318Z,7.17
2018-06-12T08:03:52.884Z,5.62
2018-06-12T08:06:21.167Z,4.83
2018-06-12T08:08:50.534Z,6.22
2018-06-12T08:11:18.973Z,6.83
2018-06-12T08:13:47.235Z,6.07
2018-06-12T08:16:15.799Z,5.92
2018-06-12T08:18:44.301Z,6.20
2018-06-12T08:21:13.560Z,7.54
2018-06-12T08:23:42.392Z,7.67
2018-06-12T08:26:11.014Z,6.97
2018-06-12T08:28:39.432Z,8.57
2018-06-12T08:31:07.682Z,7.97
2018-06-12T08:33:37.083Z,6.92
2018-06-12T08:36:06.518Z,7.74
2018-06-12T08:38:37.373Z,7.78
2018-06-12T08:41:06.094Z,9.30
2018-06-12T08:43:34.548Z,7.03
2018-06-12T08:46:03.930Z,7.02
2018-06-12T08:48:33.623Z,5.34
2018-06-12T08:51:02.130Z,7.03
2018-06-12T08:53:31.590Z,6.18
2018-06-12T08:56:00.148Z,8.07
2018-06-12T08:58:28.690Z,8.73
2018-06-12T09:00:58.030Z,6.85
2018-06-12T09:03:27.545Z,10.03
2018-06-12T09:05:56.566Z,6.50
2018-06-12T09:08:24.982Z,6.77
2018-06-12T09:10:53.514Z,5.75
2018-06-12T09:13:22.082Z,8.43
2018-06-12T09:15:51.309Z,7.37
2018-06-12T09:18:19.870Z,7.45
2018-06-12T09:20:48.736Z,8.03
2018-06-12T09:23:17.682Z,8.50
2018-06-12T09:25:46.310Z,8.78
2018-06-12T09:28:14.863Z,6.53
2018-06-12T09:30:44.080Z,7.17
2018-06-12T09:33:13.124Z,8.08
2018-06-12T09:35:41.839Z,6.53
2018-06-12T09:38:10.403Z,9.43
2018-06-12T09:40:40.071Z,9.80
2018-06-12T09:43:08.603Z,7.70
2018-06-12T09:45:38.554Z,9.26
2018-06-12T09:48:07.620Z,10.25
2018-06-12T09:50:36.010Z,8.53
2018-06-12T09:53:05.504Z,7.12
2018-06-12T09:55:34.048Z,7.53
2018-06-12T09:58:03.208Z,7.95
2018-06-12T10:00:37.536Z,8.05
2018-06-12T10:03:06.860Z,7.03
2018-06-12T10:05:35.418Z,7.87
2018-06-12T10:08:04.776Z,9.38
2018-06-12T10:10:33.312Z,6.30
2018-06-12T10:13:02.291Z,7.57
2018-06-12T10:15:31.556Z,8.26
2018-06-12T10:18:00.093Z,7.83
2018-06-12T10:20:29.331Z,7.26
2018-06-12T10:22:57.867Z,8.20
2018-06-12T10:25:27.256Z,9.10
2018-06-12T10:27:56.636Z,9.20
2018-06-12T10:30:25.242Z,8.68
2018-06-12T10:32:53.743Z,6.00
2018-06-12T10:35:23.552Z,7.18
2018-06-12T10:37:53.395Z,6.20
2018-06-12T10:40:21.862Z,8.05
2018-06-12T10:42:50.377Z,7.10
2018-06-12T10:45:19.507Z,10.45
2018-06-12T10:47:48.343Z,5.90
2018-06-12T10:50:16.683Z,5.58
2018-06-12T10:52:46.123Z,7.72
2018-06-12T10:55:15.034Z,6.95
2018-06-12T10:57:43.500Z,8.00
2018-06-12T11:00:13.182Z,6.68
2018-06-12T11:02:41.623Z,10.57
2018-06-12T11:05:10.170Z,8.18
2018-06-12T11:07:38.439Z,6.60
2018-06-12T11:10:06.925Z,6.92
2018-06-12T11:12:36.599Z,8.46
2018-06-12T11:15:05.013Z,6.80
2018-06-12T11:17:33.700Z,6.93
2018-06-12T11:20:03.479Z,10.02
2018-06-12T11:22:32.052Z,7.53
2018-06-12T11:25:00.604Z,8.93
2018-06-12T11:27:29.166Z,6.33
2018-06-12T11:29:57.624Z,5.23
2018-06-12T11:32:27.705Z,5.57
2018-06-12T11:34:56.043Z,4.42
2018-06-12T11:37:24.591Z,6.95
2018-06-12T11:39:53.868Z,7.90
2018-06-12T11:42:22.435Z,6.03
2018-06-12T11:44:51.035Z,9.45
2018-06-12T11:47:23.883Z,5.65
2018-06-12T11:49:52.350Z,5.12
2018-06-12T11:52:21.927Z,5.70
2018-06-12T11:54:50.565Z,5.28
2018-06-12T11:57:18.884Z,6.23
2018-06-12T11:59:47.436Z,6.27
2018-06-12T12:02:16.301Z,7.10
2018-06-12T12:04:46.047Z,9.06
2018-06-12T12:07:14.611Z,6.62
2018-06-12T12:09:44.326Z,8.50
2018-06-12T12:12:13.372Z,10.30
2018-06-12T12:14:42.561Z,9.65
2018-06-12T12:17:11.889Z,7.88
2018-06-12T12:19:40.821Z,6.92
2018-06-12T12:22:09.135Z,8.43
2018-06-12T12:24:39.037Z,7.80
2018-06-12T12:27:07.477Z,8.53
2018-06-12T12:29:36.602Z,8.50
2018-06-12T12:32:05.822Z,8.40
2018-06-12T12:34:34.428Z,9.00
2018-06-12T12:37:03.306Z,7.15
2018-06-12T12:39:32.620Z,8.86
2018-06-12T12:42:01.409Z,7.83
2018-06-12T12:44:30.869Z,6.94
2018-06-12T12:47:00.381Z,7.73
2018-06-12T12:49:29.239Z,7.55
2018-06-12T12:51:58.480Z,6.46
2018-06-12T12:54:27.759Z,5.54
2018-06-12T12:56:56.315Z,7.70
2018-06-12T12:59:24.984Z,4.93
2018-06-12T13:01:54.251Z,7.87
2018-06-12T13:04:23.366Z,4.92
2018-06-12T13:06:51.806Z,7.03
2018-06-12T13:09:20.252Z,4.37
2018-06-12T13:11:49.860Z,6.70
2018-06-12T13:14:18.422Z,6.17
2018-06-12T13:16:46.702Z,4.60
2018-06-12T13:19:15.744Z,5.53
2018-06-12T13:21:44.926Z,6.05
2018-06-12T13:24:13.491Z,4.78
2018-06-12T13:26:42.792Z,5.77
2018-06-12T13:29:12.172Z,5.42
2018-06-12T13:31:40.600Z,5.03
2018-06-12T13:34:09.189Z,5.60
2018-06-12T13:36:37.609Z,5.50
2018-06-12T13:39:07.491Z,5.14
2018-06-12T13:41:36.375Z,5.40
2018-06-12T13:44:05.269Z,7.45
2018-06-12T13:46:35.027Z,4.37
2018-06-12T13:49:03.776Z,7.08
2018-06-12T13:51:32.236Z,5.73
2018-06-12T13:54:02.060Z,5.38
2018-06-12T13:56:30.657Z,3.87
2018-06-12T13:58:59.709Z,4.40
2018-06-12T14:01:28.235Z,3.53
2018-06-12T14:03:56.765Z,6.03
2018-06-12T14:06:25.097Z,4.47
2018-06-12T14:08:53.644Z,5.20
2018-06-12T14:11:22.171Z,5.33
2018-06-12T14:13:51.928Z,7.64
2018-06-12T14:16:20.213Z,4.77
2018-06-12T14:18:48.823Z,3.57
2018-06-12T14:21:17.789Z,4.30
2018-06-12T14:23:46.337Z,5.10
2018-06-12T14:26:14.688Z,7.40
2018-06-12T14:28:43.388Z,5.73
2018-06-12T14:31:12.406Z,3.67
2018-06-12T14:33:41.512Z,3.08
2018-06-12T14:36:10.451Z,3.23
2018-06-12T14:38:39.064Z,4.37
2018-06-12T14:41:08.715Z,3.76
2018-06-12T14:43:38.466Z,2.75
2018-06-12T14:46:07.059Z,3.00
2018-06-12T14:48:36.549Z,3.12
2018-06-12T14:51:05.469Z,3.70
2018-06-12T14:53:34.031Z,4.53
2018-06-12T14:56:03.542Z,2.52
2018-06-12T14:58:32.884Z,2.60
2018-06-12T15:01:01.588Z,3.93
2018-06-12T15:03:30.144Z,3.33
2018-06-12T15:05:59.426Z,4.37
2018-06-12T15:08:27.970Z,4.00
2018-06-12T15:10:57.339Z,3.80
2018-06-12T15:13:26.571Z,3.20
2018-06-12T15:15:54.845Z,6.17
2018-06-12T15:18:23.408Z,3.83
2018-06-12T15:20:52.893Z,3.67
2018-06-12T15:23:21.346Z,1.67
2018-06-12T15:25:49.929Z,3.00
2018-06-12T15:28:19.570Z,4.28
2018-06-12T15:30:48.128Z,1.80
2018-06-12T15:33:16.563Z,2.45
2018-06-12T15:35:45.996Z,2.72
2018-06-12T15:38:15.123Z,1.70
2018-06-12T15:40:43.699Z,3.20
2018-06-12T15:43:13.079Z,2.62
2018-06-12T15:45:41.708Z,3.05
2018-06-12T15:48:11.929Z,2.83
2018-06-12T15:50:40.908Z,2.15
2018-06-12T15:53:09.286Z,2.83
2018-06-12T15:55:37.631Z,1.43
2018-06-12T15:58:06.436Z,3.22
2018-06-12T16:00:35.805Z,2.12
2018-06-12T16:03:04.371Z,2.20
2018-06-12T16:05:34.378Z,4.34
2018-06-12T16:08:03.856Z,3.08
2018-06-12T16:10:32.815Z,2.77
2018-06-12T16:13:01.356Z,2.33
2018-06-12T16:15:29.919Z,3.58
2018-06-12T16:17:58.748Z,1.32
2018-06-12T16:20:28.183Z,3.72
2018-06-12T16:22:56.829Z,2.97
2018-06-12T16:25:26.073Z,3.25
2018-06-12T16:27:54.624Z,2.70
2018-06-12T16:30:23.195Z,3.00
2018-06-12T16:32:52.230Z,2.43
2018-06-12T16:35:20.783Z,2.55
2018-06-12T16:37:49.407Z,2.77
2018-06-12T16:40:17.920Z,5.00
2018-06-12T16:42:46.407Z,3.10
2018-06-12T16:45:15.017Z,2.93
2018-06-12T16:47:43.629Z,2.27
2018-06-12T16:50:12.220Z,3.70
2018-06-12T16:52:40.610Z,3.23
2018-06-12T16:55:10.451Z,4.10
2018-06-12T16:57:39.043Z,3.27
2018-06-12T17:00:07.565Z,2.23
2018-06-12T17:02:36.640Z,2.37
2018-06-12T17:05:06.665Z,3.26
2018-06-12T17:07:35.681Z,2.52
2018-06-12T17:10:04.839Z,4.83
2018-06-12T17:12:33.498Z,3.33
2018-06-12T17:15:02.561Z,2.33
2018-06-12T17:17:31.328Z,3.40
2018-06-12T17:20:00.255Z,2.47
2018-06-12T17:22:29.571Z,1.84
2018-06-12T17:24:58.240Z,2.90
2018-06-12T17:27:26.833Z,2.22
2018-06-12T17:29:56.369Z,6.72
2018-06-12T17:32:24.950Z,3.75
2018-06-12T17:34:53.498Z,2.10
2018-06-12T17:37:22.391Z,4.60
2018-06-12T17:39:50.690Z,3.03
2018-06-12T17:42:19.057Z,3.65
2018-06-12T17:44:47.391Z,2.90
2018-06-12T17:47:17.030Z,2.70
2018-06-12T17:49:45.706Z,4.47
2018-06-12T17:52:14.345Z,5.47
2018-06-12T17:54:42.976Z,1.95
2018-06-12T17:57:12.278Z,2.17
2018-06-12T17:59:41.257Z,2.53
2018-06-12T18:02:09.797Z,1.65
2018-06-12T18:04:38.177Z,1.85
2018-06-12T18:07:07.390Z,2.15
2018-06-12T18:09:36.309Z,1.82
2018-06-12T18:12:05.961Z,3.03
2018-06-12T18:14:34.588Z,2.25
2018-06-12T18:17:04.141Z,2.92
2018-06-12T18:19:33.667Z,4.05
2018-06-12T18:22:02.943Z,2.27
2018-06-12T18:24:32.548Z,4.58
2018-06-12T18:27:02.453Z,2.92
2018-06-12T18:29:31.261Z,2.80
2018-06-12T18:32:00.083Z,6.00
2018-06-12T18:34:28.528Z,2.20
2018-06-12T18:36:57.796Z,5.62
2018-06-12T18:39:26.158Z,2.52
2018-06-12T18:41:55.561Z,3.73
2018-06-12T18:44:24.297Z,3.50
2018-06-12T18:46:52.679Z,3.25
2018-06-12T18:49:22.111Z,4.93
2018-06-12T18:51:51.283Z,4.67
2018-06-12T18:54:20.276Z,6.57
2018-06-12T18:56:49.523Z,4.27
2018-06-12T18:59:18.217Z,3.90
2018-06-12T19:01:47.996Z,3.00
2018-06-12T19:04:16.925Z,2.17
2018-06-12T19:06:45.525Z,4.07
2018-06-12T19:09:16.052Z,2.43
2018-06-12T19:11:45.880Z,2.17
2018-06-12T19:14:15.082Z,0.90
2018-06-12T19:16:44.878Z,2.47
2018-06-12T19:19:15.865Z,1.10
2018-06-12T19:21:44.585Z,2.60
2018-06-12T19:24:13.007Z,3.40
2018-06-12T19:26:42.096Z,2.27
2018-06-12T19:29:11.556Z,3.67
2018-06-12T19:31:42.432Z,3.52
2018-06-12T19:34:11.481Z,2.62
2018-06-12T19:36:40.862Z,2.92
2018-06-12T19:39:09.568Z,6.30
2018-06-12T19:41:38.520Z,3.67
2018-06-12T19:44:07.098Z,3.33
2018-06-12T19:46:35.786Z,2.12
2018-06-12T19:49:06.227Z,4.28
2018-06-12T19:51:34.618Z,3.83
2018-06-12T19:54:03.436Z,5.00
2018-06-12T19:56:33.318Z,4.13
2018-06-12T19:59:04.736Z,5.67
2018-06-12T20:01:34.571Z,3.80
2018-06-12T20:04:04.278Z,4.60
2018-06-12T20:06:33.786Z,6.17
2018-06-12T20:09:02.862Z,9.28
2018-06-12T20:11:31.273Z,4.67
2018-06-12T20:14:00.210Z,2.90
2018-06-12T20:16:29.459Z,4.97
2018-06-12T20:18:57.843Z,4.87
2018-06-12T20:21:26.429Z,3.73
2018-06-12T20:23:55.523Z,3.67
2018-06-12T20:26:23.945Z,4.97
2018-06-12T20:28:52.438Z,3.90
2018-06-12T20:31:21.195Z,3.10
2018-06-12T20:33:49.628Z,3.17
2018-06-12T20:36:18.803Z,2.03
2018-06-12T20:38:47.267Z,5.20
2018-06-12T20:41:15.939Z,2.40
2018-06-12T20:43:44.303Z,4.07
2018-06-12T20:46:12.783Z,2.87
2018-06-12T20:48:44.326Z,3.50
2018-06-12T20:51:12.655Z,3.73
2018-06-12T20:53:41.932Z,3.67
2018-06-12T20:56:11.328Z,2.87
2018-06-12T20:58:41.364Z,4.00
2018-06-12T21:01:10.529Z,3.60
2018-06-12T21:03:40.173Z,4.27
2018-06-12T21:06:09.390Z,3.60
2018-06-12T21:08:37.801Z,3.33
2018-06-12T21:11:06.198Z,5.23
2018-06-12T21:13:34.504Z,4.67
2018-06-12T21:16:02.857Z,3.13
2018-06-12T21:18:31.236Z,3.80
2018-06-12T21:20:59.531Z,4.03
2018-06-12T21:23:28.213Z,5.00
2018-06-12T21:25:56.540Z,2.70
2018-06-12T21:28:24.599Z,5.67
2018-06-12T21:30:52.951Z,4.80
2018-06-12T21:33:21.261Z,4.40
2018-06-12T21:35:49.560Z,6.67
2018-06-12T21:38:17.849Z,6.53
2018-06-12T21:40:46.190Z,4.53
2018-06-12T21:43:14.581Z,4.20
2018-06-12T21:45:43.122Z,4.90
2018-06-12T21:48:15.592Z,5.37
2018-06-12T21:50:44.033Z,4.70
2018-06-12T21:53:12.320Z,6.57
2018-06-12T21:55:40.872Z,5.57
2018-06-12T21:58:10.086Z,5.00
2018-06-12T22:00:38.377Z,6.00
2018-06-12T22:03:07.330Z,7.03
2018-06-12T22:05:35.665Z,6.60
2018-06-12T22:08:04.171Z,8.33
2018-06-12T22:10:38.712Z,5.60
2018-06-12T22:13:07.020Z,5.90
2018-06-12T22:15:35.300Z,6.77
2018-06-12T22:18:03.819Z,4.17
2018-06-12T22:20:33.552Z,5.60
2018-06-12T22:23:01.853Z,7.23
2018-06-12T22:25:30.265Z,5.83
2018-06-12T22:27:58.671Z,8.27
2018-06-12T22:30:27.188Z,8.33
2018-06-12T22:35:54.111Z,6.43
2018-06-12T22:38:22.385Z,7.00
2018-06-12T22:40:50.690Z,5.87
2018-06-12T22:43:18.979Z,5.50
2018-06-12T22:45:47.569Z,10.23
2018-06-12T22:48:16.023Z,4.90
2018-06-12T22:50:44.334Z,5.97
2018-06-12T22:53:12.990Z,3.73
2018-06-12T22:55:41.279Z,3.87
2018-06-12T23:01:06.154Z,4.77
2018-06-12T23:03:34.613Z,6.13
2018-06-12T23:06:02.888Z,5.27
2018-06-12T23:08:31.195Z,4.13
2018-06-12T23:10:59.465Z,6.10
2018-06-12T23:13:27.762Z,5.90
2018-06-12T23:15:56.102Z,5.73
2018-06-12T23:18:24.370Z,5.00
2018-06-12T23:22:04.957Z,5.97
2018-06-12T23:24:33.230Z,6.03
2018-06-12T23:27:01.616Z,3.20
2018-06-12T23:29:30.023Z,4.57
2018-06-12T23:31:58.309Z,6.00
2018-06-12T23:34:26.655Z,5.53
2018-06-12T23:36:55.200Z,2.90
2018-06-12T23:39:30.055Z,6.07
2018-06-12T23:41:59.071Z,7.77
2018-06-12T23:44:27.493Z,5.03
2018-06-12T23:46:56.320Z,5.73
2018-06-12T23:49:24.644Z,4.93
2018-06-12T23:51:53.346Z,5.93
2018-06-12T23:54:21.636Z,5.17
2018-06-12T23:56:49.939Z,4.57
2018-06-12T23:59:18.255Z,4.90
